MiSS Gloria — WDF2691 — position and weather

sailwx.info

Track history (hours):
 
Tides and Currents Weather Stations Pressure Air Temp Water Temp Dewpoint Dewpoint Depression Visibility Wind Speed Wind Dir Waves Ship Positions

MiSS Gloria

Owner: Marquette Transportation Company Offshore LLC, Jefferson, LA. More information available from US FCC via Universal Licensing System and Coast Guard Vessel Documentation Center.

Last reported at 2018-May-14 05:29 UTC. Time now 2018-Jun-19 04:52 UTC.
Position N 27°43' W 082°37'.
Warning: this ship's position is 35 days out of date.

Length 29 m; draft 3 m.

Type: Towing. MMSI: 367430780.

Date/timePositionNaut miles runAvg speedWind from/ knotsBaromVisibWave heightAir tempDewpointWater temp
2018-May-14 05:29N 27°43' W 082°37'4 7.4
2018-May-14 05:01N 27°46' W 082°36'3 6.9
2018-May-14 04:30N 27°49' W 082°34'4 7.3
2018-May-14 04:00N 27°53' W 082°33'1 1.2
2018-May-14 03:30N 27°53' W 082°32'0 0.0
2018-May-14 03:00N 27°53' W 082°32'0 0.0
2018-May-14 02:30N 27°53' W 082°32'0 0.0
2018-May-14 01:59N 27°53' W 082°32'0 0.0
2018-May-14 01:30N 27°53' W 082°32'0 0.0
2018-May-14 01:00N 27°53' W 082°32'0 0.0
2018-May-14 00:30N 27°53' W 082°32'0 0.0
2018-May-14 00:00N 27°53' W 082°32'0 0.0
2018-May-13 23:30N 27°53' W 082°32'0 0.0
2018-May-13 23:00N 27°53' W 082°32'0 0.0
2018-May-13 22:30N 27°53' W 082°32'0 0.0
2018-May-13 22:00N 27°53' W 082°32'0 0.0
2018-May-13 21:30N 27°53' W 082°32'0 0.0
2018-May-13 21:00N 27°53' W 082°32'0 0.7
2018-May-13 20:31N 27°53' W 082°33'1 1.3
2018-May-13 20:00N 27°53' W 082°32'0 0.0
2018-May-13 19:31N 27°53' W 082°32'0 0.5
2018-May-13 19:01N 27°53' W 082°32'0 0.6
2018-May-13 18:30N 27°53' W 082°33'0 0.3
2018-May-13 18:00N 27°53' W 082°32'0 0.2
2018-May-13 17:30N 27°53' W 082°32'0 0.0
2018-May-13 17:00N 27°53' W 082°32'0 0.4
2018-May-13 16:31N 27°53' W 082°32'0 0.5
2018-May-13 16:01N 27°53' W 082°32'0 0.5
2018-May-13 15:30N 27°53' W 082°32'0 0.1
2018-May-13 15:00N 27°53' W 082°32'0 0.8
2018-May-13 14:30N 27°53' W 082°33'0 0.7
2018-May-13 14:00N 27°53' W 082°32'0 0.3
2018-May-13 13:30N 27°53' W 082°32'0 0.8
2018-May-13 13:00N 27°53' W 082°32'0 0.0
2018-May-13 12:30N 27°53' W 082°32'0 0.1
2018-May-13 12:00N 27°53' W 082°32'0 0.1
2018-May-13 11:30N 27°53' W 082°32'0 0.2
2018-May-13 11:00N 27°53' W 082°32'0 0.3
2018-May-13 10:31N 27°53' W 082°32'0 0.0
2018-May-13 10:00N 27°53' W 082°32'0 0.0
2018-May-13 09:31N 27°53' W 082°32'0 0.0
2018-May-13 09:00N 27°53' W 082°32'0 0.0
2018-May-13 08:30N 27°53' W 082°32'0 0.0
2018-May-13 08:01N 27°53' W 082°32'0 0.0
2018-May-13 07:30N 27°53' W 082°32'0 0.0
2018-May-13 07:00N 27°53' W 082°32'0 0.0
2018-May-13 06:30N 27°53' W 082°32'0 0.0
2018-May-13 06:01N 27°53' W 082°32'0 0.0
2018-May-13 05:30N 27°53' W 082°32'0 0.0
2018-May-13 05:00N 27°53' W 082°32'0 0.0
2018-May-13 04:30N 27°53' W 082°32'0 0.0
2018-May-13 04:00N 27°53' W 082°32'0 0.0
2018-May-13 03:31N 27°53' W 082°32'0 0.0
2018-May-13 03:00N 27°53' W 082°32'0 0.0
2018-May-13 02:30N 27°53' W 082°32'0 0.0
2018-May-13 02:01N 27°53' W 082°32'0 0.0
2018-May-13 01:30N 27°53' W 082°32'0 0.0
2018-May-13 01:00N 27°53' W 082°32'0 0.0
2018-May-13 00:30N 27°53' W 082°32'0 0.0
2018-May-13 00:01N 27°53' W 082°32'0 0.0
2018-May-12 23:30N 27°53' W 082°32'1 2.9
2018-May-12 23:00N 27°52' W 082°33'3 6.8
2018-May-12 22:30N 27°49' W 082°34'3 5.9
2018-May-12 21:59N 27°46' W 082°36'2 0.3
2018-May-12 15:34N 27°44' W 082°37'1 6.9
2018-May-12 15:26N 27°45' W 082°37'3 6.8
2018-May-12 15:01N 27°48' W 082°35'3 6.5
2018-May-12 14:30N 27°51' W 082°34'3 5.4
2018-May-12 14:00N 27°53' W 082°33'0 0.6
2018-May-12 13:30N 27°53' W 082°32'0 0.3
2018-May-12 13:00N 27°53' W 082°32'0 0.0
2018-May-12 12:30N 27°53' W 082°32'0 0.0
2018-May-12 12:01N 27°53' W 082°32'0 0.3
2018-May-12 11:30N 27°53' W 082°32'0 0.0
2018-May-12 11:00N 27°53' W 082°32'0 0.1
2018-May-12 10:31N 27°53' W 082°32'0 0.0
2018-May-12 10:00N 27°53' W 082°32'0 0.0
2018-May-12 09:30N 27°53' W 082°32'0 0.0
2018-May-12 09:00N 27°53' W 082°32'0 0.0
2018-May-12 08:30N 27°53' W 082°32'0 0.0
2018-May-12 08:00N 27°53' W 082°32'0 0.0
2018-May-12 07:30N 27°53' W 082°32'0 0.0
2018-May-12 07:00N 27°53' W 082°32'0 0.0
2018-May-12 06:30N 27°53' W 082°32'0 0.0
2018-May-12 06:01N 27°53' W 082°32'0 0.0
2018-May-12 05:31N 27°53' W 082°32'0 0.0
2018-May-12 05:00N 27°53' W 082°32'0 0.0
2018-May-12 04:30N 27°53' W 082°32'0 0.0
2018-May-12 04:01N 27°53' W 082°32'0 0.0
2018-May-12 03:31N 27°53' W 082°32'0 0.0
2018-May-12 03:00N 27°53' W 082°32'0 0.0
2018-May-12 02:30N 27°53' W 082°32'0 0.0
2018-May-12 02:00N 27°53' W 082°32'0 0.0
2018-May-12 01:30N 27°53' W 082°32'0 0.0
2018-May-12 01:00N 27°53' W 082°32'0 0.0
2018-May-12 00:30N 27°53' W 082°32'0 0.0
2018-May-12 00:01N 27°53' W 082°32'0 0.0
2018-May-11 23:30N 27°53' W 082°32'0 0.0
2018-May-11 23:01N 27°53' W 082°32'0 0.0
2018-May-11 22:31N 27°53' W 082°32'0 0.0
2018-May-11 22:01N 27°53' W 082°32'0 0.0
2018-May-11 21:30N 27°53' W 082°32'0 0.0
2018-May-11 21:00N 27°53' W 082°32'0 0.0
2018-May-11 20:20N 27°53' W 082°32'0 0.0
2018-May-11 20:01N 27°53' W 082°32'0 0.0
2018-May-11 19:30N 27°53' W 082°32'0 0.0
2018-May-11 19:00N 27°53' W 082°32'0 0.0
2018-May-11 18:30N 27°53' W 082°32'0 0.0
2018-May-11 17:22N 27°53' W 082°32'0 0.0
2018-May-11 17:00N 27°53' W 082°32'0 0.0
2018-May-11 15:44N 27°53' W 082°32'0 0.0
2018-May-11 15:23N 27°53' W 082°32'0 0.0
2018-May-11 14:59N 27°53' W 082°32'0 0.0
2018-May-11 14:31N 27°53' W 082°32'0 0.0
2018-May-11 14:00N 27°53' W 082°32'0 0.0
2018-May-11 13:30N 27°53' W 082°32'0 0.0
2018-May-11 13:00N 27°53' W 082°32'0 0.0
2018-May-11 12:30N 27°53' W 082°32'0 0.1
2018-May-11 12:00N 27°53' W 082°32'0 0.0
2018-May-11 11:30N 27°53' W 082°32'0 0.0
2018-May-11 11:00N 27°53' W 082°32'0 0.0
2018-May-11 10:30N 27°53' W 082°32'0 0.0
2018-May-11 10:00N 27°53' W 082°32'0 0.0
2018-May-11 09:31N 27°53' W 082°32'0 0.0
2018-May-11 09:00N 27°53' W 082°32'0 0.0
2018-May-11 08:31N 27°53' W 082°32'0 0.0
2018-May-11 08:01N 27°53' W 082°32'0 0.0
2018-May-11 07:30N 27°53' W 082°32'0 0.0
2018-May-11 07:01N 27°53' W 082°32'0 0.0
2018-May-11 06:30N 27°53' W 082°32'0 0.0
2018-May-11 06:00N 27°53' W 082°32'0 0.0
2018-May-11 05:30N 27°53' W 082°32'0 0.0
2018-May-11 05:00N 27°53' W 082°32'0 0.0
2018-May-11 04:30N 27°53' W 082°32'0 0.0
2018-May-11 04:01N 27°53' W 082°32'0 0.0
2018-May-11 03:30N 27°53' W 082°32'0 0.0
2018-May-11 03:00N 27°53' W 082°32'0 0.0
2018-May-11 02:30N 27°53' W 082°32'0 0.0
2018-May-11 02:01N 27°53' W 082°32'0 0.0
2018-May-11 01:31N 27°53' W 082°32'0 0.0
2018-May-11 01:01N 27°53' W 082°32'0 0.0
2018-May-11 00:30N 27°53' W 082°32'0 0.0
2018-May-11 00:01N 27°53' W 082°32'0 0.0
2018-May-10 23:30N 27°53' W 082°32'0 0.0
2018-May-10 23:00N 27°53' W 082°32'0 0.0
2018-May-10 22:30N 27°53' W 082°32'0 0.0
2018-May-10 22:00N 27°53' W 082°32'0 0.0
2018-May-10 21:30N 27°53' W 082°32'0 0.0
2018-May-10 21:00N 27°53' W 082°32'0 0.2
2018-May-10 20:30N 27°53' W 082°32'0 0.2
2018-May-10 20:00N 27°53' W 082°32'0 0.0
2018-May-10 19:30N 27°53' W 082°32'0 0.0
2018-May-10 19:00N 27°53' W 082°32'0 0.0
2018-May-10 18:30N 27°53' W 082°32'2 4.7
2018-May-10 18:00N 27°51' W 082°33'4 7.3
2018-May-10 17:29N 27°48' W 082°34'  
2018-May-08 08:54N 29°35' W 089°49'612.1
2018-May-08 08:25N 29°38' W 089°55'511.3
2018-May-08 07:56N 29°42' W 089°59'  
Track history (hours):
 
Tides and Currents Weather Stations Pressure Air Temp Water Temp Dewpoint Dewpoint Depression Visibility Wind Speed Wind Dir Waves Ship Positions

MiSS Gloria

Owner: Marquette Transportation Company Offshore LLC, Jefferson, LA. More information available from US FCC via Universal Licensing System and Coast Guard Vessel Documentation Center.

Last reported at 2018-May-14 05:29 UTC. Time now 2018-Jun-19 04:52 UTC.
Position N 27°43' W 082°37'.
Warning: this ship's position is 35 days out of date.

Length 29 m; draft 3 m.

Type: Towing. MMSI: 367430780.

Date/timePositionNaut miles runAvg speedWind from/ knotsBaromVisibWave heightAir tempDewpointWater temp
2018-May-14 05:29N 27°43' W 082°37'4 7.4
2018-May-14 05:01N 27°46' W 082°36'3 6.9
2018-May-14 04:30N 27°49' W 082°34'4 7.3
2018-May-14 04:00N 27°53' W 082°33'1 1.2
2018-May-14 03:30N 27°53' W 082°32'0 0.0
2018-May-14 03:00N 27°53' W 082°32'0 0.0
2018-May-14 02:30N 27°53' W 082°32'0 0.0
2018-May-14 01:59N 27°53' W 082°32'0 0.0
2018-May-14 01:30N 27°53' W 082°32'0 0.0
2018-May-14 01:00N 27°53' W 082°32'0 0.0
2018-May-14 00:30N 27°53' W 082°32'0 0.0
2018-May-14 00:00N 27°53' W 082°32'0 0.0
2018-May-13 23:30N 27°53' W 082°32'0 0.0
2018-May-13 23:00N 27°53' W 082°32'0 0.0
2018-May-13 22:30N 27°53' W 082°32'0 0.0
2018-May-13 22:00N 27°53' W 082°32'0 0.0
2018-May-13 21:30N 27°53' W 082°32'0 0.0
2018-May-13 21:00N 27°53' W 082°32'0 0.7
2018-May-13 20:31N 27°53' W 082°33'1 1.3
2018-May-13 20:00N 27°53' W 082°32'0 0.0
2018-May-13 19:31N 27°53' W 082°32'0 0.5
2018-May-13 19:01N 27°53' W 082°32'0 0.6
2018-May-13 18:30N 27°53' W 082°33'0 0.3
2018-May-13 18:00N 27°53' W 082°32'0 0.2
2018-May-13 17:30N 27°53' W 082°32'0 0.0
2018-May-13 17:00N 27°53' W 082°32'0 0.4
2018-May-13 16:31N 27°53' W 082°32'0 0.5
2018-May-13 16:01N 27°53' W 082°32'0 0.5
2018-May-13 15:30N 27°53' W 082°32'0 0.1
2018-May-13 15:00N 27°53' W 082°32'0 0.8
2018-May-13 14:30N 27°53' W 082°33'0 0.7
2018-May-13 14:00N 27°53' W 082°32'0 0.3
2018-May-13 13:30N 27°53' W 082°32'0 0.8
2018-May-13 13:00N 27°53' W 082°32'0 0.0
2018-May-13 12:30N 27°53' W 082°32'0 0.1
2018-May-13 12:00N 27°53' W 082°32'0 0.1
2018-May-13 11:30N 27°53' W 082°32'0 0.2
2018-May-13 11:00N 27°53' W 082°32'0 0.3
2018-May-13 10:31N 27°53' W 082°32'0 0.0
2018-May-13 10:00N 27°53' W 082°32'0 0.0
2018-May-13 09:31N 27°53' W 082°32'0 0.0
2018-May-13 09:00N 27°53' W 082°32'0 0.0
2018-May-13 08:30N 27°53' W 082°32'0 0.0
2018-May-13 08:01N 27°53' W 082°32'0 0.0
2018-May-13 07:30N 27°53' W 082°32'0 0.0
2018-May-13 07:00N 27°53' W 082°32'0 0.0
2018-May-13 06:30N 27°53' W 082°32'0 0.0
2018-May-13 06:01N 27°53' W 082°32'0 0.0
2018-May-13 05:30N 27°53' W 082°32'0 0.0
2018-May-13 05:00N 27°53' W 082°32'0 0.0
2018-May-13 04:30N 27°53' W 082°32'0 0.0
2018-May-13 04:00N 27°53' W 082°32'0 0.0
2018-May-13 03:31N 27°53' W 082°32'0 0.0
2018-May-13 03:00N 27°53' W 082°32'0 0.0
2018-May-13 02:30N 27°53' W 082°32'0 0.0
2018-May-13 02:01N 27°53' W 082°32'0 0.0
2018-May-13 01:30N 27°53' W 082°32'0 0.0
2018-May-13 01:00N 27°53' W 082°32'0 0.0
2018-May-13 00:30N 27°53' W 082°32'0 0.0
2018-May-13 00:01N 27°53' W 082°32'0 0.0
2018-May-12 23:30N 27°53' W 082°32'1 2.9
2018-May-12 23:00N 27°52' W 082°33'3 6.8
2018-May-12 22:30N 27°49' W 082°34'3 5.9
2018-May-12 21:59N 27°46' W 082°36'2 0.3
2018-May-12 15:34N 27°44' W 082°37'1 6.9
2018-May-12 15:26N 27°45' W 082°37'3 6.8
2018-May-12 15:01N 27°48' W 082°35'3 6.5
2018-May-12 14:30N 27°51' W 082°34'3 5.4
2018-May-12 14:00N 27°53' W 082°33'0 0.6
2018-May-12 13:30N 27°53' W 082°32'0 0.3
2018-May-12 13:00N 27°53' W 082°32'0 0.0
2018-May-12 12:30N 27°53' W 082°32'0 0.0
2018-May-12 12:01N 27°53' W 082°32'0 0.3
2018-May-12 11:30N 27°53' W 082°32'0 0.0
2018-May-12 11:00N 27°53' W 082°32'0 0.1
2018-May-12 10:31N 27°53' W 082°32'0 0.0
2018-May-12 10:00N 27°53' W 082°32'0 0.0
2018-May-12 09:30N 27°53' W 082°32'0 0.0
2018-May-12 09:00N 27°53' W 082°32'0 0.0
2018-May-12 08:30N 27°53' W 082°32'0 0.0
2018-May-12 08:00N 27°53' W 082°32'0 0.0
2018-May-12 07:30N 27°53' W 082°32'0 0.0
2018-May-12 07:00N 27°53' W 082°32'0 0.0
2018-May-12 06:30N 27°53' W 082°32'0 0.0
2018-May-12 06:01N 27°53' W 082°32'0 0.0
2018-May-12 05:31N 27°53' W 082°32'0 0.0
2018-May-12 05:00N 27°53' W 082°32'0 0.0
2018-May-12 04:30N 27°53' W 082°32'0 0.0
2018-May-12 04:01N 27°53' W 082°32'0 0.0
2018-May-12 03:31N 27°53' W 082°32'0 0.0
2018-May-12 03:00N 27°53' W 082°32'0 0.0
2018-May-12 02:30N 27°53' W 082°32'0 0.0
2018-May-12 02:00N 27°53' W 082°32'0 0.0
2018-May-12 01:30N 27°53' W 082°32'0 0.0
2018-May-12 01:00N 27°53' W 082°32'0 0.0
2018-May-12 00:30N 27°53' W 082°32'0 0.0
2018-May-12 00:01N 27°53' W 082°32'0 0.0
2018-May-11 23:30N 27°53' W 082°32'0 0.0
2018-May-11 23:01N 27°53' W 082°32'0 0.0
2018-May-11 22:31N 27°53' W 082°32'0 0.0
2018-May-11 22:01N 27°53' W 082°32'0 0.0
2018-May-11 21:30N 27°53' W 082°32'0 0.0
2018-May-11 21:00N 27°53' W 082°32'0 0.0
2018-May-11 20:20N 27°53' W 082°32'0 0.0
2018-May-11 20:01N 27°53' W 082°32'0 0.0
2018-May-11 19:30N 27°53' W 082°32'0 0.0
2018-May-11 19:00N 27°53' W 082°32'0 0.0
2018-May-11 18:30N 27°53' W 082°32'0 0.0
2018-May-11 17:22N 27°53' W 082°32'0 0.0
2018-May-11 17:00N 27°53' W 082°32'0 0.0
2018-May-11 15:44N 27°53' W 082°32'0 0.0
2018-May-11 15:23N 27°53' W 082°32'0 0.0
2018-May-11 14:59N 27°53' W 082°32'0 0.0
2018-May-11 14:31N 27°53' W 082°32'0 0.0
2018-May-11 14:00N 27°53' W 082°32'0 0.0
2018-May-11 13:30N 27°53' W 082°32'0 0.0
2018-May-11 13:00N 27°53' W 082°32'0 0.0
2018-May-11 12:30N 27°53' W 082°32'0 0.1
2018-May-11 12:00N 27°53' W 082°32'0 0.0
2018-May-11 11:30N 27°53' W 082°32'0 0.0
2018-May-11 11:00N 27°53' W 082°32'0 0.0
2018-May-11 10:30N 27°53' W 082°32'0 0.0
2018-May-11 10:00N 27°53' W 082°32'0 0.0
2018-May-11 09:31N 27°53' W 082°32'0 0.0
2018-May-11 09:00N 27°53' W 082°32'0 0.0
2018-May-11 08:31N 27°53' W 082°32'0 0.0
2018-May-11 08:01N 27°53' W 082°32'0 0.0
2018-May-11 07:30N 27°53' W 082°32'0 0.0
2018-May-11 07:01N 27°53' W 082°32'0 0.0
2018-May-11 06:30N 27°53' W 082°32'0 0.0
2018-May-11 06:00N 27°53' W 082°32'0 0.0
2018-May-11 05:30N 27°53' W 082°32'0 0.0
2018-May-11 05:00N 27°53' W 082°32'0 0.0
2018-May-11 04:30N 27°53' W 082°32'0 0.0
2018-May-11 04:01N 27°53' W 082°32'0 0.0
2018-May-11 03:30N 27°53' W 082°32'0 0.0
2018-May-11 03:00N 27°53' W 082°32'0 0.0
2018-May-11 02:30N 27°53' W 082°32'0 0.0
2018-May-11 02:01N 27°53' W 082°32'0 0.0
2018-May-11 01:31N 27°53' W 082°32'0 0.0
2018-May-11 01:01N 27°53' W 082°32'0 0.0
2018-May-11 00:30N 27°53' W 082°32'0 0.0
2018-May-11 00:01N 27°53' W 082°32'0 0.0
2018-May-10 23:30N 27°53' W 082°32'0 0.0
2018-May-10 23:00N 27°53' W 082°32'0 0.0
2018-May-10 22:30N 27°53' W 082°32'0 0.0
2018-May-10 22:00N 27°53' W 082°32'0 0.0
2018-May-10 21:30N 27°53' W 082°32'0 0.0
2018-May-10 21:00N 27°53' W 082°32'0 0.2
2018-May-10 20:30N 27°53' W 082°32'0 0.2
2018-May-10 20:00N 27°53' W 082°32'0 0.0
2018-May-10 19:30N 27°53' W 082°32'0 0.0
2018-May-10 19:00N 27°53' W 082°32'0 0.0
2018-May-10 18:30N 27°53' W 082°32'2 4.7
2018-May-10 18:00N 27°51' W 082°33'4 7.3
2018-May-10 17:29N 27°48' W 082°34'  
2018-May-08 08:54N 29°35' W 089°49'612.1
2018-May-08 08:25N 29°38' W 089°55'511.3
2018-May-08 07:56N 29°42' W 089°59'  

Dump ship's entire track history